createdAt,value
2018-03-01T00:01:07.115Z,17.30
2018-03-01T00:03:35.422Z,16.02
2018-03-01T00:06:03.834Z,16.30
2018-03-01T00:08:32.945Z,16.08
2018-03-01T00:11:01.322Z,15.63
2018-03-01T00:13:29.742Z,17.58
2018-03-01T00:15:58.075Z,16.87
2018-03-01T00:18:26.421Z,16.77
2018-03-01T00:20:54.843Z,17.85
2018-03-01T00:23:23.183Z,15.82
2018-03-01T00:25:52.310Z,16.87
2018-03-01T00:28:20.722Z,16.83
2018-03-01T00:30:49.083Z,17.50
2018-03-01T00:33:17.448Z,16.67
2018-03-01T00:35:45.871Z,16.40
2018-03-01T00:38:14.182Z,16.95
2018-03-01T00:40:43.302Z,16.83
2018-03-01T00:43:11.722Z,16.87
2018-03-01T00:45:40.125Z,16.62
2018-03-01T00:48:09.302Z,16.20
2018-03-01T00:50:37.723Z,17.05
2018-03-01T00:53:06.082Z,16.90
2018-03-01T00:55:35.183Z,17.23
2018-03-01T00:58:04.328Z,16.65
2018-03-01T01:00:32.695Z,16.77
2018-03-01T01:03:01.095Z,17.58
2018-03-01T01:05:29.510Z,18.12
2018-03-01T01:07:58.579Z,16.58
2018-03-01T01:10:26.920Z,17.42
2018-03-01T01:12:55.322Z,17.30
2018-03-01T01:15:23.656Z,17.77
2018-03-01T01:17:52.106Z,16.65
2018-03-01T01:20:20.535Z,16.95
2018-03-01T01:22:48.863Z,17.20
2018-03-01T01:25:17.185Z,16.30
2018-03-01T01:27:45.562Z,17.70
2018-03-01T01:30:13.870Z,18.23
2018-03-01T01:32:42.203Z,18.40
2018-03-01T01:35:10.623Z,18.62
2018-03-01T01:37:39.043Z,17.90
2018-03-01T01:40:07.435Z,18.65
2018-03-01T01:42:35.822Z,18.10
2018-03-01T01:45:04.237Z,17.92
2018-03-01T01:47:32.583Z,18.85
2018-03-01T01:50:01.087Z,18.73
2018-03-01T01:52:29.442Z,18.55
2018-03-01T01:54:57.799Z,18.10
2018-03-01T01:57:26.942Z,18.05
2018-03-01T01:59:55.315Z,17.92
2018-03-01T02:02:24.537Z,18.10
2018-03-01T02:04:52.857Z,17.95
2018-03-01T02:07:21.140Z,18.90
2018-03-01T02:09:49.466Z,18.67
2018-03-01T02:12:17.788Z,18.17
2018-03-01T02:14:46.077Z,18.77
2018-03-01T02:17:14.436Z,18.67
2018-03-01T02:19:42.712Z,17.52
2018-03-01T02:22:11.039Z,18.20
2018-03-01T02:24:39.439Z,18.20
2018-03-01T02:27:07.756Z,18.50
2018-03-01T02:29:36.040Z,18.55
2018-03-01T02:32:04.380Z,18.37
2018-03-01T02:34:32.737Z,18.87
2018-03-01T02:37:01.049Z,19.15
2018-03-01T02:39:29.417Z,18.45
2018-03-01T02:41:57.757Z,18.25
2018-03-01T02:44:26.878Z,18.40
2018-03-01T02:46:55.183Z,18.83
2018-03-01T02:49:23.484Z,17.25
2018-03-01T02:51:51.824Z,17.05
2018-03-01T02:54:20.173Z,18.55
2018-03-01T02:56:48.459Z,18.77
2018-03-01T02:59:16.793Z,18.92
2018-03-01T03:01:45.100Z,18.37
2018-03-01T03:04:13.483Z,18.55
2018-03-01T03:06:41.816Z,18.40
2018-03-01T03:09:10.138Z,17.62
2018-03-01T03:11:38.476Z,18.45
2018-03-01T03:14:06.785Z,18.52
2018-03-01T03:16:35.084Z,17.12
2018-03-01T03:19:03.445Z,18.58
2018-03-01T03:21:31.739Z,19.45
2018-03-01T03:24:00.086Z,20.20
2018-03-01T03:26:28.404Z,18.48
2018-03-01T03:28:56.689Z,18.33
2018-03-01T03:31:25.009Z,19.40
2018-03-01T03:33:54.098Z,18.00
2018-03-01T03:36:23.208Z,17.17
2018-03-01T03:38:52.260Z,18.62
2018-03-01T03:41:20.560Z,19.25
2018-03-01T03:43:49.681Z,16.65
2018-03-01T03:46:17.979Z,15.57
2018-03-01T03:48:46.365Z,15.65
2018-03-01T03:51:14.708Z,12.65
2018-03-01T03:53:43.024Z,11.45
2018-03-01T03:56:11.362Z,18.80
2018-03-01T03:58:39.701Z,15.95
2018-03-01T04:01:08.033Z,16.77
2018-03-01T04:03:36.403Z,16.70
2018-03-01T04:06:04.733Z,18.42
2018-03-01T04:08:33.046Z,18.02
2018-03-01T04:11:01.377Z,16.10
2018-03-01T04:13:29.700Z,17.92
2018-03-01T04:15:58.752Z,15.65
2018-03-01T04:18:27.074Z,16.35
2018-03-01T04:20:55.377Z,15.30
2018-03-01T04:23:23.689Z,16.60
2018-03-01T04:25:52.024Z,17.55
2018-03-01T04:28:20.337Z,17.20
2018-03-01T04:30:48.620Z,16.33
2018-03-01T04:33:16.941Z,15.63
2018-03-01T04:35:45.250Z,15.50
2018-03-01T04:38:13.600Z,14.82
2018-03-01T04:40:41.893Z,17.12
2018-03-01T04:43:10.188Z,17.40
2018-03-01T04:45:38.502Z,11.55
2018-03-01T04:48:06.785Z,13.18
2018-03-01T04:50:35.923Z,17.92
2018-03-01T04:53:04.245Z,15.27
2018-03-01T04:55:33.316Z,16.30
2018-03-01T04:58:01.646Z,16.85
2018-03-01T05:00:30.010Z,18.58
2018-03-01T05:03:01.208Z,16.62
2018-03-01T05:05:29.501Z,13.90
2018-03-01T05:07:57.785Z,16.85
2018-03-01T05:10:26.087Z,11.00
2018-03-01T05:12:55.205Z,16.35
2018-03-01T05:15:23.552Z,15.98
2018-03-01T05:17:52.630Z,15.65
2018-03-01T05:20:20.980Z,15.70
2018-03-01T05:22:49.309Z,14.82
2018-03-01T05:25:18.374Z,17.25
2018-03-01T05:27:46.765Z,13.52
2018-03-01T05:30:15.815Z,15.80
2018-03-01T05:32:44.128Z,16.98
2018-03-01T05:35:13.341Z,13.40
2018-03-01T05:37:42.440Z,13.85
2018-03-01T05:40:11.612Z,17.50
2018-03-01T05:42:39.908Z,13.90
2018-03-01T05:45:09.037Z,14.55
2018-03-01T05:47:37.403Z,15.88
2018-03-01T05:50:05.728Z,15.77
2018-03-01T05:52:34.872Z,10.68
2018-03-01T05:55:03.212Z,15.48
2018-03-01T05:57:32.312Z,15.88
2018-03-01T06:00:00.824Z,14.18
2018-03-01T06:02:29.306Z,15.63
2018-03-01T06:04:57.678Z,17.02
2018-03-01T06:07:26.752Z,14.95
2018-03-01T06:09:55.166Z,14.23
2018-03-01T06:12:23.501Z,16.83
2018-03-01T06:14:51.837Z,15.57
2018-03-01T06:17:20.201Z,17.15
2018-03-01T06:19:48.624Z,15.38
2018-03-01T06:22:16.932Z,16.55
2018-03-01T06:24:46.017Z,15.50
2018-03-01T06:27:15.329Z,7.35
2018-03-01T06:29:44.018Z,12.68
2018-03-01T06:32:12.447Z,15.25
2018-03-01T06:34:40.761Z,15.40
2018-03-01T06:37:09.897Z,14.13
2018-03-01T06:39:38.240Z,16.98
2018-03-01T06:42:07.615Z,14.75
2018-03-01T06:44:35.898Z,15.82
2018-03-01T06:47:04.188Z,13.20
2018-03-01T06:49:33.309Z,10.38
2018-03-01T06:52:03.037Z,8.18
2018-03-01T06:54:31.408Z,7.78
2018-03-01T06:56:59.740Z,16.25
2018-03-01T06:59:28.053Z,15.85
2018-03-01T07:01:56.375Z,13.13
2018-03-01T07:04:24.685Z,13.77
2018-03-01T07:06:53.824Z,8.38
2018-03-01T07:09:22.184Z,10.75
2018-03-01T07:11:50.497Z,12.88
2018-03-01T07:14:18.855Z,13.70
2018-03-01T07:16:47.153Z,14.63
2018-03-01T07:19:15.605Z,13.50
2018-03-01T07:21:43.985Z,11.73
2018-03-01T07:24:12.386Z,12.00
2018-03-01T07:26:40.777Z,12.27
2018-03-01T07:29:09.105Z,14.82
2018-03-01T07:31:37.496Z,14.03
2018-03-01T07:34:06.354Z,11.93
2018-03-01T07:36:35.520Z,10.67
2018-03-01T07:39:03.952Z,9.10
2018-03-01T07:41:32.533Z,9.17
2018-03-01T07:44:01.486Z,8.00
2018-03-01T07:46:29.788Z,8.43
2018-03-01T07:48:59.263Z,10.50
2018-03-01T07:51:27.632Z,13.50
2018-03-01T07:53:55.929Z,13.20
2018-03-01T07:56:25.085Z,7.63
2018-03-01T07:58:53.396Z,7.53
2018-03-01T08:01:21.727Z,7.97
2018-03-01T08:03:50.133Z,8.10
2018-03-01T08:06:18.513Z,7.93
2018-03-01T08:08:47.942Z,7.73
2018-03-01T08:11:17.095Z,8.40
2018-03-01T08:13:45.436Z,8.63
2018-03-01T08:16:14.203Z,7.67
2018-03-01T08:18:43.291Z,8.10
2018-03-01T08:21:11.637Z,7.90
2018-03-01T08:23:39.988Z,7.67
2018-03-01T08:26:08.307Z,8.27
2018-03-01T08:28:36.668Z,8.20
2018-03-01T08:31:05.780Z,7.90
2018-03-01T08:33:34.149Z,8.13
2018-03-01T08:36:02.462Z,8.10
2018-03-01T08:38:31.533Z,6.37
2018-03-01T08:40:59.872Z,7.83
2018-03-01T08:43:28.214Z,7.13
2018-03-01T08:45:57.368Z,8.53
2018-03-01T08:48:26.378Z,8.03
2018-03-01T08:50:54.720Z,7.80
2018-03-01T08:53:23.057Z,7.80
2018-03-01T08:55:52.168Z,7.80
2018-03-01T08:58:20.533Z,7.90
2018-03-01T09:00:49.645Z,7.37
2018-03-01T09:03:17.980Z,6.87
2018-03-01T09:05:46.346Z,6.40
2018-03-01T09:08:14.669Z,7.20
2018-03-01T09:10:43.116Z,5.33
2018-03-01T09:13:11.459Z,6.37
2018-03-01T09:15:40.533Z,7.47
2018-03-01T09:18:08.885Z,6.83
2018-03-01T09:20:38.046Z,7.60
2018-03-01T09:23:06.426Z,8.30
2018-03-01T09:25:34.756Z,8.13
2018-03-01T09:28:03.069Z,8.30
2018-03-01T09:30:31.375Z,7.30
2018-03-01T09:32:59.703Z,8.67
2018-03-01T09:35:28.108Z,7.40
2018-03-01T09:37:56.818Z,5.80
2018-03-01T09:40:25.211Z,6.30
2018-03-01T09:42:53.553Z,6.20
2018-03-01T09:45:21.946Z,7.80
2018-03-01T09:47:50.298Z,7.47
2018-03-01T09:50:19.389Z,6.20
2018-03-01T09:52:47.731Z,7.63
2018-03-01T09:55:16.085Z,6.37
2018-03-01T09:57:45.737Z,6.20
2018-03-01T10:00:14.097Z,5.40
2018-03-01T10:02:42.447Z,5.60
2018-03-01T10:05:10.812Z,6.10
2018-03-01T10:07:39.188Z,6.20
2018-03-01T10:10:07.497Z,7.63
2018-03-01T10:12:35.865Z,5.73
2018-03-01T10:15:05.086Z,6.27
2018-03-01T10:17:33.471Z,6.80
2018-03-01T10:20:01.832Z,5.90
2018-03-01T10:22:30.146Z,6.20
2018-03-01T10:24:58.515Z,6.27
2018-03-01T10:27:26.877Z,7.37
2018-03-01T10:29:55.186Z,5.73
2018-03-01T10:32:23.510Z,6.33
2018-03-01T10:34:51.850Z,6.20
2018-03-01T10:37:20.225Z,6.77
2018-03-01T10:39:48.601Z,7.17
2018-03-01T10:42:16.900Z,6.93
2018-03-01T10:44:46.240Z,6.60
2018-03-01T10:47:15.312Z,5.73
2018-03-01T10:49:43.732Z,5.23
2018-03-01T10:52:12.072Z,5.80
2018-03-01T10:54:41.172Z,6.20
2018-03-01T10:57:09.504Z,6.20
2018-03-01T10:59:37.892Z,7.30
2018-03-01T11:02:06.247Z,6.90
2018-03-01T11:04:34.548Z,6.23
2018-03-01T11:07:03.565Z,5.63
2018-03-01T11:09:32.672Z,5.30
2018-03-01T11:12:01.832Z,5.50
2018-03-01T11:14:30.118Z,5.57
2018-03-01T11:17:01.485Z,5.53
2018-03-01T11:19:29.911Z,5.20
2018-03-01T11:21:58.237Z,5.37
2018-03-01T11:24:26.647Z,5.03
2018-03-01T11:26:54.966Z,6.03
2018-03-01T11:29:23.297Z,4.67
2018-03-01T11:31:51.710Z,4.63
2018-03-01T11:34:20.034Z,5.03
2018-03-01T11:36:49.062Z,4.30
2018-03-01T11:39:17.428Z,5.10
2018-03-01T11:41:45.818Z,4.53
2018-03-01T11:44:14.149Z,5.10
2018-03-01T11:46:42.465Z,4.57
2018-03-01T11:49:10.801Z,5.60
2018-03-01T11:51:39.202Z,4.50
2018-03-01T11:54:08.271Z,6.20
2018-03-01T11:56:36.606Z,3.93
2018-03-01T11:59:04.934Z,4.97
2018-03-01T12:01:34.026Z,4.63
2018-03-01T12:04:02.348Z,3.67
2018-03-01T12:06:30.652Z,3.37
2018-03-01T12:08:58.988Z,3.90
2018-03-01T12:11:27.270Z,3.43
2018-03-01T12:13:55.556Z,4.30
2018-03-01T12:16:23.906Z,4.50
2018-03-01T12:18:52.948Z,4.37
2018-03-01T12:21:21.259Z,4.03
2018-03-01T12:23:50.319Z,4.13
2018-03-01T12:26:18.598Z,4.40
2018-03-01T12:28:46.905Z,3.87
2018-03-01T12:31:15.972Z,4.00
2018-03-01T12:33:45.247Z,3.47
2018-03-01T12:36:13.505Z,4.10
2018-03-01T12:38:41.786Z,4.10
2018-03-01T12:41:10.092Z,3.80
2018-03-01T12:43:38.411Z,3.43
2018-03-01T12:46:07.578Z,4.60
2018-03-01T12:48:35.769Z,4.50
2018-03-01T12:51:04.092Z,3.90
2018-03-01T12:53:32.449Z,3.47
2018-03-01T12:56:01.505Z,4.40
2018-03-01T12:58:29.874Z,4.40
2018-03-01T13:00:58.179Z,4.37
2018-03-01T13:03:26.885Z,3.30
2018-03-01T13:05:56.003Z,13.30
2018-03-01T13:08:24.353Z,16.23
2018-03-01T13:10:53.520Z,12.47
2018-03-01T13:13:22.656Z,15.73
2018-03-01T13:15:51.043Z,15.43
2018-03-01T13:18:19.367Z,14.17
2018-03-01T13:20:47.709Z,14.17
2018-03-01T13:23:16.090Z,14.43
2018-03-01T13:25:44.400Z,15.13
2018-03-01T13:28:12.716Z,10.40
2018-03-01T13:30:41.830Z,13.87
2018-03-01T13:33:15.540Z,14.93
2018-03-01T13:35:43.910Z,14.57
2018-03-01T13:38:12.234Z,14.77
2018-03-01T13:40:41.384Z,14.60
2018-03-01T13:43:12.565Z,15.63
2018-03-01T13:45:52.746Z,16.73
2018-03-01T13:48:21.874Z,16.03
2018-03-01T13:50:50.206Z,14.73
2018-03-01T13:53:18.611Z,14.07
2018-03-01T13:55:46.969Z,15.73
2018-03-01T13:58:15.317Z,17.03
2018-03-01T14:00:44.566Z,15.13
2018-03-01T14:03:12.909Z,16.77
2018-03-01T14:05:43.197Z,15.37
2018-03-01T14:08:11.499Z,15.70
2018-03-01T14:10:39.866Z,18.93
2018-03-01T14:13:11.776Z,16.87
2018-03-01T14:15:41.684Z,17.13
2018-03-01T14:18:27.359Z,16.57
2018-03-01T14:24:23.800Z,17.33
2018-03-01T14:26:54.077Z,17.17
2018-03-01T14:29:27.981Z,13.87
2018-03-01T14:31:57.212Z,18.10
2018-03-01T14:34:25.533Z,16.23
2018-03-01T14:36:54.627Z,19.00
2018-03-01T14:39:23.700Z,18.23
2018-03-01T14:41:52.026Z,17.20
2018-03-01T14:44:20.366Z,17.83
2018-03-01T14:46:49.476Z,18.33
2018-03-01T14:49:18.577Z,16.97
2018-03-01T14:51:47.667Z,16.97
2018-03-01T14:54:16.923Z,15.97
2018-03-01T14:56:45.277Z,19.60
2018-03-01T14:59:13.606Z,16.43
2018-03-01T15:01:41.932Z,17.40
2018-03-01T15:04:10.293Z,16.80
2018-03-01T15:06:38.816Z,15.57
2018-03-01T15:09:07.200Z,18.27
2018-03-01T15:11:35.492Z,16.27
2018-03-01T15:14:03.794Z,16.33
2018-03-01T15:16:32.893Z,18.30
2018-03-01T15:19:01.220Z,17.77
2018-03-01T15:21:29.585Z,15.37
2018-03-01T15:23:58.065Z,14.93
2018-03-01T15:26:26.394Z,16.83
2018-03-01T15:28:55.528Z,17.83
2018-03-01T15:31:23.885Z,20.00
2018-03-01T15:33:52.262Z,20.13
2018-03-01T15:36:20.556Z,17.67
2018-03-01T15:38:48.878Z,16.73
2018-03-01T15:41:17.208Z,18.50
2018-03-01T15:43:45.556Z,15.40
2018-03-01T15:46:13.930Z,17.75
2018-03-01T15:48:43.165Z,18.93
2018-03-01T15:51:11.596Z,15.73
2018-03-01T15:53:40.720Z,15.80
2018-03-01T15:56:09.163Z,17.60
2018-03-01T15:58:37.687Z,18.98
2018-03-01T16:01:06.950Z,16.13
2018-03-01T16:03:37.146Z,18.50
2018-03-01T16:06:05.623Z,17.85
2018-03-01T16:08:34.052Z,16.52
2018-03-01T16:11:03.135Z,15.30
2018-03-01T16:13:32.253Z,20.20
2018-03-01T16:16:00.576Z,15.68
2018-03-01T16:18:28.999Z,17.87
2018-03-01T16:20:58.083Z,18.33
2018-03-01T16:23:27.250Z,19.45
2018-03-01T16:25:55.766Z,18.80
2018-03-01T16:28:25.056Z,18.55
2018-03-01T16:30:54.325Z,16.87
2018-03-01T16:33:22.628Z,17.37
2018-03-01T16:35:51.737Z,17.07
2018-03-01T16:38:20.854Z,16.77
2018-03-01T16:40:49.197Z,16.73
2018-03-01T16:43:18.312Z,19.10
2018-03-01T16:45:46.720Z,15.65
2018-03-01T16:48:15.100Z,13.98
2018-03-01T16:50:44.411Z,18.92
2018-03-01T16:53:13.623Z,14.20
2018-03-01T16:55:42.012Z,14.43
2018-03-01T16:58:10.329Z,20.30
2018-03-01T17:00:40.025Z,12.93
2018-03-01T17:03:09.967Z,17.58
2018-03-01T17:05:39.439Z,20.55
2018-03-01T17:08:09.955Z,19.62
2018-03-01T17:10:40.007Z,17.77
2018-03-01T17:13:08.986Z,20.05
2018-03-01T17:15:41.031Z,23.70
2018-03-01T17:18:10.673Z,24.40
2018-03-01T17:20:38.988Z,23.67
2018-03-01T17:23:07.307Z,20.08
2018-03-01T17:25:36.381Z,21.37
2018-03-01T17:28:04.862Z,21.40
2018-03-01T17:30:34.064Z,20.70
2018-03-01T17:33:02.583Z,25.42
2018-03-01T17:35:30.886Z,23.95
2018-03-01T17:37:59.200Z,29.30
2018-03-01T17:40:27.486Z,29.98
2018-03-01T17:42:57.434Z,22.98
2018-03-01T17:45:25.828Z,22.67
2018-03-01T17:47:54.188Z,20.12
2018-03-01T17:50:22.611Z,15.13
2018-03-01T17:52:51.042Z,23.95
2018-03-01T17:55:19.466Z,23.08
2018-03-01T17:57:47.903Z,26.58
2018-03-01T18:00:16.383Z,21.67
2018-03-01T18:02:44.987Z,22.10
2018-03-01T18:05:13.287Z,22.67
2018-03-01T18:07:41.681Z,22.35
2018-03-01T18:10:10.763Z,17.52
2018-03-01T18:12:39.263Z,22.37
2018-03-01T18:15:07.625Z,21.75
2018-03-01T18:17:36.106Z,21.77
2018-03-01T18:20:04.983Z,21.60
2018-03-01T18:22:33.325Z,21.73
2018-03-01T18:25:01.619Z,22.98
2018-03-01T18:27:30.055Z,17.98
2018-03-01T18:29:59.136Z,20.85
2018-03-01T18:32:27.602Z,21.08
2018-03-01T18:34:55.922Z,22.25
2018-03-01T18:37:24.239Z,41.88
2018-03-01T18:39:52.586Z,24.35
2018-03-01T18:42:21.029Z,38.25
2018-03-01T18:44:49.385Z,27.58
2018-03-01T18:47:17.831Z,24.37
2018-03-01T18:49:46.158Z,22.42
2018-03-01T18:52:14.480Z,22.45
2018-03-01T18:54:42.898Z,26.98
2018-03-01T18:57:11.186Z,20.98
2018-03-01T18:59:39.517Z,24.15
2018-03-01T19:02:07.871Z,22.33
2018-03-01T19:04:37.080Z,21.85
2018-03-01T19:07:05.443Z,19.95
2018-03-01T19:09:34.541Z,22.27
2018-03-01T19:12:03.781Z,20.48
2018-03-01T19:14:32.108Z,20.48
2018-03-01T19:17:02.643Z,18.17
2018-03-01T19:19:31.083Z,23.15
2018-03-01T19:22:01.762Z,21.62
2018-03-01T19:24:30.944Z,21.55
2018-03-01T19:27:00.097Z,23.38
2018-03-01T19:29:28.448Z,23.35
2018-03-01T19:31:58.397Z,22.70
2018-03-01T19:34:26.775Z,22.08
2018-03-01T19:36:55.223Z,22.55
2018-03-01T19:39:23.543Z,22.87
2018-03-01T19:41:51.962Z,20.33
2018-03-01T19:44:20.384Z,21.73
2018-03-01T19:46:48.783Z,21.25
2018-03-01T19:49:17.301Z,21.20
2018-03-01T19:51:46.548Z,21.90
2018-03-01T19:54:14.923Z,23.25
2018-03-01T19:56:43.328Z,21.20
2018-03-01T19:59:11.857Z,21.70
2018-03-01T20:01:40.383Z,21.02
2018-03-01T20:04:10.488Z,21.48
2018-03-01T20:06:38.814Z,23.27
2018-03-01T20:09:08.084Z,22.23
2018-03-01T20:11:36.571Z,21.50
2018-03-01T20:14:04.963Z,22.65
2018-03-01T20:16:34.062Z,22.40
2018-03-01T20:19:03.184Z,22.60
2018-03-01T20:21:31.643Z,23.75
2018-03-01T20:24:00.718Z,22.85
2018-03-01T20:26:29.143Z,24.25
2018-03-01T20:28:57.454Z,22.45
2018-03-01T20:31:26.825Z,22.08
2018-03-01T20:33:55.264Z,22.62
2018-03-01T20:36:24.407Z,23.02
2018-03-01T20:38:52.847Z,21.87
2018-03-01T20:41:21.945Z,23.00
2018-03-01T20:43:50.385Z,21.67
2018-03-01T20:46:18.741Z,20.83
2018-03-01T20:48:47.045Z,23.00
2018-03-01T20:51:15.332Z,23.20
2018-03-01T20:53:45.489Z,23.40
2018-03-01T20:56:14.567Z,22.98
2018-03-01T20:58:43.668Z,22.27
2018-03-01T21:01:11.995Z,22.35
2018-03-01T21:03:40.249Z,22.40
2018-03-01T21:06:08.535Z,23.45
2018-03-01T21:08:37.648Z,23.73
2018-03-01T21:11:05.979Z,23.58
2018-03-01T21:13:34.289Z,22.27
2018-03-01T21:16:02.617Z,22.52
2018-03-01T21:18:30.947Z,23.55
2018-03-01T21:20:59.265Z,23.45
2018-03-01T21:23:28.348Z,22.83
2018-03-01T21:25:56.718Z,22.92
2018-03-01T21:28:25.123Z,22.60
2018-03-01T21:30:53.425Z,22.60
2018-03-01T21:33:21.748Z,23.65
2018-03-01T21:35:50.073Z,22.92
2018-03-01T21:38:18.389Z,23.23
2018-03-01T21:40:46.736Z,23.35
2018-03-01T21:43:15.074Z,23.38
2018-03-01T21:45:44.188Z,22.92
2018-03-01T21:48:12.528Z,21.75
2018-03-01T21:50:40.928Z,23.17
2018-03-01T21:53:10.010Z,23.40
2018-03-01T21:55:38.314Z,23.98
2018-03-01T21:58:06.644Z,24.20
2018-03-01T22:00:34.960Z,24.42
2018-03-01T22:03:04.153Z,24.17
2018-03-01T22:05:33.205Z,24.23
2018-03-01T22:08:01.614Z,23.62
2018-03-01T22:10:30.664Z,23.90
2018-03-01T22:12:59.939Z,23.67
2018-03-01T22:15:28.238Z,23.02
2018-03-01T22:17:56.604Z,23.87
2018-03-01T22:20:24.905Z,24.20
2018-03-01T22:22:53.216Z,23.10
2018-03-01T22:25:21.520Z,24.52
2018-03-01T22:27:49.812Z,24.77
2018-03-01T22:30:18.165Z,23.92
2018-03-01T22:32:47.226Z,24.15
2018-03-01T22:35:15.536Z,25.02
2018-03-01T22:37:43.950Z,24.00
2018-03-01T22:40:13.100Z,24.30
2018-03-01T22:42:42.177Z,23.90
2018-03-01T22:45:10.485Z,25.15
2018-03-01T22:47:39.674Z,25.73
2018-03-01T22:50:09.572Z,23.55
2018-03-01T22:52:37.865Z,23.00
2018-03-01T22:55:06.951Z,24.92
2018-03-01T22:57:35.266Z,22.73
2018-03-01T23:00:03.685Z,24.55
2018-03-01T23:02:31.965Z,25.05
2018-03-01T23:05:00.366Z,23.95
2018-03-01T23:07:29.469Z,23.62
2018-03-01T23:09:58.535Z,24.35
2018-03-01T23:12:26.885Z,23.77
2018-03-01T23:14:55.180Z,24.67
2018-03-01T23:17:23.496Z,24.70
2018-03-01T23:19:52.561Z,23.92
2018-03-01T23:22:21.860Z,23.87
2018-03-01T23:24:50.132Z,23.08
2018-03-01T23:27:18.446Z,24.10
2018-03-01T23:29:46.722Z,23.98
2018-03-01T23:32:15.789Z,24.67
2018-03-01T23:34:44.113Z,25.30
2018-03-01T23:37:12.413Z,24.90
2018-03-01T23:39:40.756Z,24.27
2018-03-01T23:42:09.097Z,24.37
2018-03-01T23:44:37.468Z,24.15
2018-03-01T23:47:05.771Z,24.42
2018-03-01T23:49:34.865Z,24.42
2018-03-01T23:52:03.948Z,24.67
2018-03-01T23:54:33.003Z,24.92
2018-03-01T23:57:01.266Z,25.08
2018-03-01T23:59:29.549Z,25.05
